Time;durP1;ratioP1;P1;durP2;ratioP2;P2;SDS_P1;SDS_P2;PMS_P1;PMS_P2;Temp;Humidity;BMP_temperature;BMP_pressure;BME280_temperature;BME280_humidity;BME280_pressure;Samples;Min_cycle;Max_cycle;Signal;HPM_P1;HPM_P2
2021/12/31 00:00:14;;;;;;;77.85;54.77;;;;;;;6.03;81.17;97190.47;1769450;80;25794;-85
2021/12/31 00:02:43;;;;;;;65.65;26.60;;;;;;;6.03;81.21;97197.17;1771300;80;25710;-85
2021/12/31 00:05:10;;;;;;;77.22;24.65;;;;;;;6.03;81.21;97189.97;1748155;80;25651;-86
2021/12/31 00:07:37;;;;;;;95.83;24.12;;;;;;;6.05;81.20;97195.11;1740868;82;27427;-85
2021/12/31 00:10:06;;;;;;;74.65;20.48;;;;;;;6.04;81.14;97190.26;1759478;80;25750;-85
2021/12/31 00:12:32;;;;;;;36.80;12.43;;;;;;;6.02;81.13;97197.68;1769893;80;25723;-85
2021/12/31 00:14:59;;;;;;;47.08;15.20;;;;;;;6.01;81.09;97204.05;1752649;80;26022;-85
2021/12/31 00:17:27;;;;;;;25.70;12.05;;;;;;;6.03;81.24;97203.36;1751136;80;25692;-86
2021/12/31 00:20:06;;;;;;;42.53;30.85;;;;;;;6.02;81.24;97211.08;1741604;80;27489;-85
2021/12/31 00:25:08;;;;;;;20.52;8.98;;;;;;;6.03;81.42;97206.05;1737768;81;25321;-85
2021/12/31 00:27:35;;;;;;;54.58;16.23;;;;;;;6.07;81.59;97205.13;1749533;81;25866;-86
2021/12/31 00:30:01;;;;;;;51.63;19.92;;;;;;;6.05;81.55;97209.34;1751229;81;26467;-85
2021/12/31 00:32:28;;;;;;;42.13;14.25;;;;;;;6.07;81.58;97212.66;1752505;80;27334;-85
2021/12/31 00:34:54;;;;;;;27.32;11.50;;;;;;;6.09;81.56;97215.16;1750341;80;26288;-85
2021/12/31 00:37:29;;;;;;;28.00;11.85;;;;;;;6.08;81.54;97212.99;1752559;80;25604;-86
2021/12/31 00:39:56;;;;;;;29.90;14.35;;;;;;;6.10;81.65;97206.94;1752420;81;25984;-86
2021/12/31 00:42:23;;;;;;;19.10;11.05;;;;;;;6.11;81.74;97208.60;1753669;80;25669;-86
2021/12/31 00:44:50;;;;;;;15.75;11.57;;;;;;;6.11;81.73;97209.95;1758583;81;27411;-85
2021/12/31 00:47:17;;;;;;;33.20;13.00;;;;;;;6.12;81.76;97218.30;1729558;81;25724;-86
2021/12/31 00:49:44;;;;;;;37.48;12.37;;;;;;;6.12;81.72;97216.97;1744114;80;25734;-85
2021/12/31 00:52:11;;;;;;;30.48;11.73;;;;;;;6.13;81.75;97216.46;1744322;81;26046;-86
2021/12/31 00:54:38;;;;;;;20.48;8.55;;;;;;;6.13;81.75;97217.29;1737439;81;25655;-85
2021/12/31 00:57:06;;;;;;;22.25;8.40;;;;;;;6.13;81.67;97213.78;1758849;81;28110;-85
2021/12/31 00:59:35;;;;;;;24.10;10.32;;;;;;;6.11;81.80;97222.00;1758740;81;25772;-85
2021/12/31 01:02:05;;;;;;;15.50;7.70;;;;;;;6.09;81.78;97222.70;1759028;80;25465;-86
2021/12/31 01:04:33;;;;;;;11.00;5.70;;;;;;;6.09;81.81;97229.39;1759071;81;26359;-85
2021/12/31 01:07:03;;;;;;;11.43;5.42;;;;;;;6.05;81.74;97234.80;1758872;80;26117;-85
2021/12/31 01:09:31;;;;;;;6.97;3.70;;;;;;;6.04;81.80;97229.11;1731031;81;27380;-85
2021/12/31 01:12:01;;;;;;;51.98;18.67;;;;;;;6.06;81.94;97227.08;1728800;81;25681;-86
2021/12/31 01:14:34;;;;;;;40.33;14.68;;;;;;;6.06;82.00;97232.44;1728881;82;25741;-85
2021/12/31 01:17:00;;;;;;;56.37;18.20;;;;;;;6.04;82.03;97226.94;1744160;81;25989;-86
2021/12/31 01:21:55;;;;;;;18.70;8.40;;;;;;;6.04;82.15;97217.05;1755271;81;27361;-87
2021/12/31 01:24:25;;;;;;;15.55;7.08;;;;;;;6.05;82.17;97232.63;1759014;81;25820;-86
2021/12/31 01:26:52;;;;;;;9.65;5.25;;;;;;;6.07;82.19;97227.41;1759106;81;25267;-86
2021/12/31 01:29:19;;;;;;;10.60;5.35;;;;;;;6.06;82.20;97228.42;1748009;81;26577;-86
2021/12/31 01:31:45;;;;;;;11.08;6.40;;;;;;;6.07;82.20;97228.74;1759061;80;25875;-86
2021/12/31 01:34:12;;;;;;;10.95;5.85;;;;;;;6.05;82.14;97230.78;1758885;80;27356;-86
2021/12/31 01:36:39;;;;;;;8.25;5.85;;;;;;;6.06;82.14;97226.25;1759041;80;25764;-86
2021/12/31 01:39:05;;;;;;;23.22;10.30;;;;;;;6.05;82.18;97232.11;1733706;81;25768;-86
2021/12/31 01:41:32;;;;;;;15.58;8.53;;;;;;;6.06;82.14;97233.78;1728907;82;26754;-87
2021/12/31 01:44:05;;;;;;;13.88;7.62;;;;;;;6.06;82.09;97231.09;1722761;81;25678;-86
2021/12/31 01:46:33;;;;;;;15.35;8.25;;;;;;;6.04;82.04;97231.80;1722357;82;27576;-86
2021/12/31 01:49:02;;;;;;;16.23;7.53;;;;;;;6.03;82.07;97242.73;1749506;81;26320;-85
2021/12/31 01:51:29;;;;;;;11.95;6.40;;;;;;;6.01;82.09;97233.53;1752687;81;25733;-86
2021/12/31 01:53:56;;;;;;;13.03;7.00;;;;;;;6.01;82.04;97243.41;1752638;81;26773;-86
2021/12/31 01:56:25;;;;;;;12.58;6.37;;;;;;;6.01;81.98;97244.75;1752711;80;25753;-86
2021/12/31 01:58:55;;;;;;;10.32;6.45;;;;;;;5.97;81.97;97244.28;1737639;81;27432;-85
2021/12/31 02:01:23;;;;;;;17.50;8.15;;;;;;;5.97;81.99;97250.98;1752463;81;25811;-86
2021/12/31 02:03:52;;;;;;;16.40;9.05;;;;;;;5.96;81.97;97247.98;1723071;81;25710;-87
2021/12/31 02:06:19;;;;;;;21.80;11.78;;;;;;;5.95;82.06;97245.48;1746015;81;26780;-87
2021/12/31 02:08:46;;;;;;;17.50;9.23;;;;;;;5.95;82.03;97246.82;1752598;81;25683;-86
2021/12/31 02:11:17;;;;;;;14.50;7.28;;;;;;;5.90;81.94;97243.89;1752703;81;27439;-86
2021/12/31 02:13:44;;;;;;;8.03;5.30;;;;;;;5.89;82.05;97239.03;1752652;81;25842;-86
2021/12/31 02:16:10;;;;;;;8.00;6.30;;;;;;;5.91;82.09;97241.03;1750658;81;25271;-85
2021/12/31 02:18:37;;;;;;;12.28;8.40;;;;;;;5.93;82.09;97238.97;1724405;81;25740;-86
2021/12/31 02:21:08;;;;;;;17.95;8.70;;;;;;;5.92;82.14;97235.96;1736176;81;25688;-85
2021/12/31 02:23:42;;;;;;;38.08;14.50;;;;;;;5.89;82.16;97226.16;1750605;81;27227;-86
2021/12/31 02:26:00;;;;;;;34.73;14.30;;;;;;;5.89;82.16;97236.87;1750311;81;25790;-86
2021/12/31 02:28:27;;;;;;;31.27;11.35;;;;;;;5.88;82.18;97244.07;1749522;81;25685;-86
2021/12/31 02:31:00;;;;;;;13.00;6.78;;;;;;;5.86;82.19;97238.03;1723706;81;26606;-86
2021/12/31 02:33:22;;;;;;;10.82;5.08;;;;;;;5.86;82.26;97231.33;1722106;82;26360;-86
2021/12/31 02:35:49;;;;;;;16.82;12.23;;;;;;;5.90;82.42;97232.67;1740914;81;26908;-85
2021/12/31 02:38:16;;;;;;;13.68;9.23;;;;;;;5.95;82.55;97238.28;1749861;81;25677;-85
2021/12/31 02:40:42;;;;;;;50.95;16.48;;;;;;;5.98;82.55;97233.89;1750091;81;25760;-85
2021/12/31 02:43:09;;;;;;;21.23;8.45;;;;;;;5.96;82.46;97237.27;1752442;81;26991;-86
2021/12/31 02:45:37;;;;;;;24.50;8.50;;;;;;;5.96;82.59;97238.60;1749718;80;25772;-86
2021/12/31 02:48:06;;;;;;;23.60;8.03;;;;;;;5.98;82.65;97232.55;1752987;81;27616;-86
2021/12/31 02:50:38;;;;;;;10.70;5.28;;;;;;;6.00;82.82;97235.88;1752990;81;25753;-86
2021/12/31 02:53:09;;;;;;;8.58;4.42;;;;;;;6.06;82.87;97237.80;1753114;81;25727;-87
2021/12/31 02:55:37;;;;;;;8.95;5.22;;;;;;;6.09;82.82;97237.44;1753056;81;25975;-85
2021/12/31 02:58:05;;;;;;;6.05;5.30;;;;;;;6.13;82.77;97241.41;1753151;81;25769;-86
2021/12/31 03:00:35;;;;;;;8.43;5.90;;;;;;;6.13;82.70;97230.69;1751876;81;27432;-87
2021/12/31 03:03:06;;;;;;;7.25;5.40;;;;;;;6.14;82.60;97235.03;1730220;81;26187;-85
2021/12/31 03:05:35;;;;;;;8.25;4.65;;;;;;;6.14;82.64;97239.05;1727335;81;26381;-87
2021/12/31 03:08:06;;;;;;;12.75;5.67;;;;;;;6.16;82.70;97236.70;1732235;81;25972;-86
2021/12/31 03:10:34;;;;;;;8.23;3.83;;;;;;;6.19;82.71;97241.66;1753071;81;25649;-85
2021/12/31 03:13:02;;;;;;;7.78;3.83;;;;;;;6.20;82.70;97244.66;1753010;80;27388;-87
2021/12/31 03:15:29;;;;;;;4.45;3.05;;;;;;;6.19;82.66;97241.16;1734037;81;25880;-85
2021/12/31 03:17:59;;;;;;;6.47;3.80;;;;;;;6.21;82.73;97239.63;1730047;81;25752;-87
2021/12/31 03:20:36;;;;;;;6.60;5.75;;;;;;;6.23;82.78;97242.45;1746591;81;25868;-86
2021/12/31 03:22:54;;;;;;;6.15;4.97;;;;;;;6.24;82.76;97241.44;1724268;81;25808;-86
2021/12/31 03:25:21;;;;;;;10.25;5.58;;;;;;;6.24;82.80;97238.75;1752913;81;28172;-88
2021/12/31 03:27:47;;;;;;;9.53;4.92;;;;;;;6.25;82.76;97233.72;1752916;81;25709;-86
2021/12/31 03:30:16;;;;;;;10.60;4.97;;;;;;;6.25;82.78;97236.39;1751545;80;26015;-85
2021/12/31 03:32:42;;;;;;;5.40;3.65;;;;;;;6.28;82.85;97231.17;1734581;81;25995;-86
2021/12/31 03:35:09;;;;;;;4.12;3.40;;;;;;;6.31;82.91;97231.61;1722961;83;25673;-85
2021/12/31 03:37:36;;;;;;;3.37;3.08;;;;;;;6.31;82.84;97233.45;1722945;83;27999;-85
2021/12/31 03:40:03;;;;;;;5.22;2.95;;;;;;;6.31;82.80;97238.81;1722777;83;25742;-87
2021/12/31 03:42:31;;;;;;;3.25;2.87;;;;;;;6.30;82.80;97235.81;1749877;80;25268;-88
2021/12/31 03:44:58;;;;;;;3.27;2.67;;;;;;;6.28;82.76;97239.22;1743857;80;26025;-87
2021/12/31 03:47:25;;;;;;;3.65;3.10;;;;;;;6.27;82.80;97241.06;1728726;82;25716;-85
2021/12/31 03:49:51;;;;;;;5.37;3.47;;;;;;;6.26;82.87;97235.89;1741382;81;27289;-85
2021/12/31 03:52:18;;;;;;;3.72;3.10;;;;;;;6.24;82.82;97237.92;1751822;81;25890;-86
2021/12/31 03:54:45;;;;;;;5.65;3.02;;;;;;;6.22;82.87;97240.78;1752096;81;25828;-87
2021/12/31 03:57:11;;;;;;;3.87;2.87;;;;;;;6.22;82.88;97239.45;1758964;80;25974;-85
2021/12/31 03:59:38;;;;;;;3.12;2.65;;;;;;;6.25;82.98;97238.25;1758998;80;25745;-88
2021/12/31 04:02:04;;;;;;;5.35;4.03;;;;;;;6.28;83.05;97239.22;1758946;81;27204;-85
2021/12/31 04:04:31;;;;;;;4.35;3.02;;;;;;;6.28;82.96;97240.55;1758865;81;25263;-86
2021/12/31 04:06:58;;;;;;;7.22;3.62;;;;;;;6.28;83.03;97246.72;1731850;80;25788;-85
2021/12/31 04:09:24;;;;;;;6.47;4.45;;;;;;;6.26;83.04;97243.93;1751881;81;26599;-85
2021/12/31 04:11:51;;;;;;;7.65;3.98;;;;;;;6.28;83.08;97246.72;1758192;81;25785;-86
2021/12/31 04:14:18;;;;;;;7.72;4.20;;;;;;;6.29;83.07;97244.88;1758794;81;28150;-86
2021/12/31 04:16:44;;;;;;;6.92;4.25;;;;;;;6.28;83.06;97245.92;1745872;81;26389;-86
2021/12/31 04:19:11;;;;;;;18.98;11.75;;;;;;;6.29;83.05;97244.88;1758928;81;25762;-85
2021/12/31 04:21:38;;;;;;;16.02;9.23;;;;;;;6.30;83.17;97241.17;1758960;80;25971;-87
2021/12/31 04:24:08;;;;;;;12.95;7.62;;;;;;;6.31;83.16;97244.17;1758944;81;25705;-88
2021/12/31 04:26:33;;;;;;;14.20;8.78;;;;;;;6.30;83.14;97247.88;1758720;80;27357;-85
2021/12/31 04:29:00;;;;;;;7.80;4.40;;;;;;;6.27;83.16;97246.94;1755274;81;25706;-86
2021/12/31 04:31:26;;;;;;;5.75;4.08;;;;;;;6.27;83.18;97239.73;1758935;80;25335;-85
2021/12/31 04:33:53;;;;;;;4.85;3.42;;;;;;;6.26;83.26;97254.14;1758854;80;26778;-86
2021/12/31 04:36:20;;;;;;;3.80;3.00;;;;;;;6.28;83.32;97245.92;1757436;80;25792;-85
2021/12/31 04:38:46;;;;;;;5.03;3.05;;;;;;;6.30;83.39;97250.05;1758941;81;27341;-86
2021/12/31 04:41:13;;;;;;;3.08;2.77;;;;;;;6.32;83.42;97251.20;1758812;80;25874;-86
2021/12/31 04:43:40;;;;;;;4.22;3.83;;;;;;;6.33;83.45;97248.34;1756418;80;25775;-86
2021/12/31 04:46:06;;;;;;;4.70;3.87;;;;;;;6.37;83.46;97252.83;1752950;81;26648;-84
2021/12/31 04:48:33;;;;;;;5.53;3.65;;;;;;;6.38;83.45;97250.47;1752880;81;25902;-85
2021/12/31 04:51:00;;;;;;;10.82;4.42;;;;;;;6.39;83.45;97253.47;1752979;81;27339;-84
2021/12/31 04:53:26;;;;;;;8.05;3.20;;;;;;;6.40;83.45;97253.80;1736022;81;25800;-84
2021/12/31 04:55:53;;;;;;;7.72;3.02;;;;;;;6.44;83.56;97253.72;1745670;81;25701;-85
2021/12/31 04:58:19;;;;;;;6.40;2.98;;;;;;;6.45;83.54;97258.89;1729465;81;25969;-84
2021/12/31 05:00:46;;;;;;;10.32;3.40;;;;;;;6.43;83.50;97264.12;1752972;81;25606;-86
2021/12/31 05:03:14;;;;;;;11.25;4.12;;;;;;;6.39;83.51;97259.67;1752343;81;27346;-88
2021/12/31 05:05:41;;;;;;;10.00;3.80;;;;;;;6.39;83.52;97268.22;1746359;81;25828;-88
2021/12/31 05:08:07;;;;;;;10.08;3.45;;;;;;;6.41;83.57;97274.20;1752912;80;25820;-88
2021/12/31 05:10:34;;;;;;;7.47;3.35;;;;;;;6.42;83.62;97267.30;1752911;81;26763;-85
2021/12/31 05:13:04;;;;;;;7.25;3.10;;;;;;;6.44;83.62;97267.13;1725921;81;25736;-85
2021/12/31 05:15:38;;;;;;;8.03;3.20;;;;;;;6.47;83.70;97267.59;1750993;81;27335;-84
2021/12/31 05:18:03;;;;;;;;;;;;;;;6.48;83.70;97271.10;1750038;81;25769;-84
2021/12/31 05:20:30;;;;;;;8.15;3.85;;;;;;;6.49;83.75;97273.59;1747782;81;25704;-85
2021/12/31 05:23:00;;;;;;;8.55;4.25;;;;;;;6.47;83.79;97266.75;1745909;81;26539;-83
2021/12/31 05:25:25;;;;;;;8.05;3.83;;;;;;;6.47;83.74;97267.59;1746340;81;25743;-85
2021/12/31 05:27:52;;;;;;;5.33;2.60;;;;;;;6.49;83.71;97258.02;1750724;81;27193;-88
2021/12/31 05:30:19;;;;;;;6.20;3.10;;;;;;;6.47;83.67;97268.09;1752689;81;26200;-84
2021/12/31 05:32:46;;;;;;;7.72;3.98;;;;;;;6.51;83.78;97268.05;1723243;81;25783;-84
2021/12/31 05:35:12;;;;;;;6.60;3.55;;;;;;;6.54;83.75;97265.47;1741662;81;25773;-84
2021/12/31 05:37:39;;;;;;;13.85;6.25;;;;;;;6.55;83.77;97262.61;1723063;83;25725;-84
2021/12/31 05:40:07;;;;;;;14.55;7.17;;;;;;;6.58;83.82;97268.94;1722856;83;27353;-87
2021/12/31 05:42:34;;;;;;;13.65;6.78;;;;;;;6.60;83.79;97263.39;1722742;83;25796;-89
2021/12/31 05:45:00;;;;;;;11.43;6.08;;;;;;;6.60;83.71;97261.55;1722595;83;25741;-87
2021/12/31 05:47:27;;;;;;;8.85;5.20;;;;;;;6.62;83.76;97267.55;1722908;81;26028;-83
2021/12/31 05:49:54;;;;;;;10.60;5.50;;;;;;;6.62;83.76;97264.87;1723069;83;25825;-87
2021/12/31 05:52:21;;;;;;;8.88;4.20;;;;;;;6.60;83.73;97258.86;1723037;82;27290;-87
2021/12/31 05:54:48;;;;;;;9.23;4.15;;;;;;;6.58;83.76;97254.70;1722924;83;26324;-87
2021/12/31 05:57:15;;;;;;;8.05;3.67;;;;;;;6.60;83.97;97261.55;1749153;81;25777;-88
2021/12/31 05:59:41;;;;;;;5.37;2.67;;;;;;;6.63;84.06;97254.47;1737921;81;26804;-83
2021/12/31 06:02:08;;;;;;;6.75;2.72;;;;;;;6.66;84.19;97256.74;1723166;82;25740;-88
2021/12/31 06:04:36;;;;;;;6.37;3.02;;;;;;;6.70;84.28;97256.69;1723049;81;27583;-87
2021/12/31 06:07:03;;;;;;;6.37;3.52;;;;;;;6.75;84.33;97256.97;1751983;81;26089;-87
2021/12/31 06:09:30;;;;;;;3.75;2.55;;;;;;;6.75;84.21;97260.16;1753000;81;25798;-83
2021/12/31 06:11:59;;;;;;;4.28;2.10;;;;;;;6.74;84.14;97257.98;1730461;81;26086;-88
2021/12/31 06:14:25;;;;;;;3.58;2.60;;;;;;;6.76;84.24;97259.14;1752988;81;25722;-88
2021/12/31 06:16:52;;;;;;;5.72;3.25;;;;;;;6.78;84.22;97263.77;1752861;81;27536;-88
2021/12/31 06:19:19;;;;;;;4.80;3.30;;;;;;;6.80;84.23;97259.05;1724492;81;25749;-88
2021/12/31 06:21:46;;;;;;;3.37;2.72;;;;;;;6.80;84.18;97255.86;1744228;81;25721;-88
2021/12/31 06:24:12;;;;;;;4.85;3.12;;;;;;;6.78;84.14;97257.91;1752813;81;26285;-88
2021/12/31 06:26:39;;;;;;;4.00;2.70;;;;;;;6.80;84.20;97269.27;1752985;81;25811;-90
2021/12/31 06:29:05;;;;;;;4.83;2.92;;;;;;;6.83;84.21;97274.27;1753037;80;27349;-88
2021/12/31 06:31:32;;;;;;;8.68;4.72;;;;;;;6.80;84.10;97273.30;1736261;81;25947;-87
2021/12/31 06:33:59;;;;;;;8.05;5.05;;;;;;;6.77;83.97;97269.65;1752981;81;25744;-87
2021/12/31 06:36:25;;;;;;;9.38;5.05;;;;;;;6.73;83.90;97277.78;1753002;81;26296;-87
2021/12/31 06:38:52;;;;;;;5.70;4.33;;;;;;;6.74;83.99;97280.78;1752950;81;25768;-87
2021/12/31 06:41:20;;;;;;;6.12;3.92;;;;;;;6.74;83.95;97282.13;1752826;81;28423;-87
2021/12/31 06:43:47;;;;;;;4.80;3.30;;;;;;;6.74;83.99;97282.13;1752701;81;26471;-86
2021/12/31 06:46:13;;;;;;;5.78;3.60;;;;;;;6.78;84.07;97284.73;1752183;81;25812;-86
2021/12/31 06:48:40;;;;;;;7.97;4.40;;;;;;;6.79;84.10;97285.05;1744025;81;26082;-87
2021/12/31 06:51:07;;;;;;;6.42;4.28;;;;;;;6.83;84.09;97286.34;1735742;81;25255;-89
2021/12/31 06:53:33;;;;;;;8.73;5.12;;;;;;;6.86;84.13;97286.48;1752502;80;27402;-89
2021/12/31 06:56:00;;;;;;;10.32;6.45;;;;;;;6.88;84.10;97298.37;1727936;81;26016;-86
2021/12/31 06:58:26;;;;;;;9.25;5.75;;;;;;;6.86;84.02;97296.70;1748117;81;25852;-86
2021/12/31 07:00:53;;;;;;;8.88;5.22;;;;;;;6.89;84.12;97290.09;1752317;81;25887;-86
2021/12/31 07:03:19;;;;;;;5.50;4.00;;;;;;;6.90;84.11;97301.16;1749049;81;25737;-86
2021/12/31 07:05:46;;;;;;;7.53;4.33;;;;;;;6.88;84.06;97295.97;1735245;81;27495;-87
2021/12/31 07:08:13;;;;;;;7.25;4.42;;;;;;;6.91;84.12;97306.02;1740617;81;25717;-86
2021/12/31 07:10:40;;;;;;;6.78;4.78;;;;;;;6.92;84.16;97308.50;1752223;81;25827;-86
2021/12/31 07:13:10;;;;;;;7.10;3.75;;;;;;;6.93;84.13;97309.34;1729386;81;26959;-86
2021/12/31 07:15:38;;;;;;;7.22;3.92;;;;;;;6.94;84.16;97308.32;1727304;81;26386;-87
2021/12/31 07:18:04;;;;;;;6.97;3.80;;;;;;;6.93;84.23;97311.52;1720785;83;28071;-85
2021/12/31 07:20:31;;;;;;;7.40;3.80;;;;;;;6.97;84.31;97302.07;1720742;83;25771;-87
2021/12/31 07:23:07;;;;;;;6.78;4.00;;;;;;;6.96;84.29;97304.43;1720797;83;25834;-87
2021/12/31 07:25:34;;;;;;;7.20;3.92;;;;;;;6.99;84.39;97306.73;1739276;82;25952;-86
2021/12/31 07:28:01;;;;;;;7.80;4.00;;;;;;;7.03;84.45;97307.17;1702782;82;26176;-86
2021/12/31 07:30:28;;;;;;;7.35;4.45;;;;;;;7.04;84.43;97316.38;1739917;81;27600;-86
2021/12/31 07:32:55;;;;;;;8.18;4.40;;;;;;;7.07;84.43;97305.77;1761051;80;26052;-86
2021/12/31 07:35:23;;;;;;;8.05;4.97;;;;;;;7.08;84.35;97304.23;1722378;82;25818;-86
2021/12/31 07:37:55;;;;;;;7.10;4.60;;;;;;;7.08;84.40;97306.09;1722442;82;25926;-86
2021/12/31 07:40:41;;;;;;;9.50;5.10;;;;;;;7.12;84.43;97312.75;1722883;83;25657;-87
2021/12/31 07:43:09;;;;;;;8.70;5.08;;;;;;;7.12;84.43;97314.09;1722615;83;27371;-87
2021/12/31 07:45:36;;;;;;;7.47;4.87;;;;;;;7.13;84.43;97307.67;1722071;82;25754;-85
2021/12/31 07:48:04;;;;;;;8.98;5.60;;;;;;;7.12;84.44;97311.41;1722118;82;25793;-87
2021/12/31 07:50:31;;;;;;;8.13;4.58;;;;;;;7.15;84.48;97313.69;1722425;82;26084;-87
2021/12/31 07:52:58;;;;;;;6.65;4.05;;;;;;;7.14;84.52;97314.20;1722498;83;25796;-87
2021/12/31 07:55:25;;;;;;;7.25;4.28;;;;;;;7.15;84.60;97318.55;1722429;82;26901;-87
2021/12/31 07:57:52;;;;;;;6.95;4.03;;;;;;;7.18;84.67;97315.99;1722426;82;25742;-87
2021/12/31 08:00:18;;;;;;;5.47;3.98;;;;;;;7.20;84.68;97313.95;1722464;83;25334;-88
2021/12/31 08:02:45;;;;;;;6.75;4.37;;;;;;;7.21;84.73;97332.56;1722464;82;26138;-87
2021/12/31 08:05:12;;;;;;;5.58;3.72;;;;;;;7.25;84.81;97322.24;1722493;82;25750;-87
2021/12/31 08:07:38;;;;;;;9.48;5.75;;;;;;;7.28;84.84;97317.84;1722439;81;27411;-87
2021/12/31 08:10:06;;;;;;;7.53;5.15;;;;;;;7.31;84.88;97319.31;1722321;82;25737;-86
2021/12/31 08:12:37;;;;;;;9.58;5.62;;;;;;;7.35;84.87;97316.58;1722451;83;25771;-87
2021/12/31 08:15:05;;;;;;;6.42;5.37;;;;;;;7.36;84.81;97319.58;1722425;83;26853;-88
2021/12/31 08:17:32;;;;;;;9.70;6.37;;;;;;;7.35;84.74;97313.38;1722413;83;25777;-87
2021/12/31 08:19:58;;;;;;;9.33;6.17;;;;;;;7.39;84.84;97325.37;1722418;82;28382;-86
2021/12/31 08:22:26;;;;;;;12.18;9.78;;;;;;;7.43;84.91;97321.28;1722355;82;25671;-86
2021/12/31 08:24:52;;;;;;;13.13;7.80;;;;;;;7.46;84.83;97311.51;1722402;83;25674;-86
2021/12/31 08:27:19;;;;;;;10.10;6.87;;;;;;;7.49;84.84;97317.81;1722446;83;26169;-89
2021/12/31 08:29:46;;;;;;;11.65;7.17;;;;;;;7.49;84.92;97316.47;1722474;83;25826;-86
2021/12/31 08:32:12;;;;;;;13.32;8.75;;;;;;;7.49;84.92;97328.55;1722471;83;27362;-87
2021/12/31 08:34:39;;;;;;;15.83;8.88;;;;;;;7.48;84.90;97322.89;1722336;83;25876;-87
2021/12/31 08:37:06;;;;;;;12.73;8.45;;;;;;;7.51;84.95;97325.17;1722427;82;25812;-86
2021/12/31 08:39:32;;;;;;;13.72;8.40;;;;;;;7.55;84.98;97331.83;1722378;82;26742;-86
2021/12/31 08:42:01;;;;;;;17.62;11.10;;;;;;;7.58;84.94;97338.16;1722523;82;25726;-86
2021/12/31 08:44:28;;;;;;;15.38;10.32;;;;;;;7.61;84.95;97333.43;1722313;82;26866;-87
2021/12/31 08:46:55;;;;;;;13.68;8.55;;;;;;;7.63;84.86;97338.07;1722099;82;25706;-87
2021/12/31 08:49:23;;;;;;;13.08;8.08;;;;;;;7.63;84.86;97347.47;1722313;83;25240;-86
2021/12/31 08:51:51;;;;;;;13.78;9.05;;;;;;;7.65;84.98;97352.98;1721967;82;26041;-86
2021/12/31 08:54:18;;;;;;;12.63;10.25;;;;;;;7.66;84.95;97355.16;1722165;83;26357;-86
2021/12/31 08:56:45;;;;;;;10.40;7.15;;;;;;;7.64;84.88;97353.16;1722437;82;27529;-85
2021/12/31 08:59:12;;;;;;;10.18;6.33;;;;;;;7.66;84.90;97360.02;1722314;83;25853;-86
2021/12/31 09:01:39;;;;;;;11.08;7.05;;;;;;;7.68;84.98;97360.66;1722376;83;25304;-87
2021/12/31 09:04:06;;;;;;;10.78;6.85;;;;;;;7.71;85.03;97364.81;1722365;82;26677;-85
2021/12/31 09:06:32;;;;;;;9.13;5.83;;;;;;;7.68;84.96;97354.45;1722477;82;25781;-86
2021/12/31 09:08:59;;;;;;;10.98;7.00;;;;;;;7.68;85.04;97363.34;1722566;82;27272;-87
2021/12/31 09:11:25;;;;;;;8.50;6.12;;;;;;;7.71;85.10;97365.64;1722268;83;26164;-86
2021/12/31 09:13:54;;;;;;;8.78;5.67;;;;;;;7.72;85.05;97359.77;1722464;82;25738;-86
2021/12/31 09:16:20;;;;;;;7.45;4.87;;;;;;;7.74;85.13;97356.34;1722514;82;26232;-87
2021/12/31 09:18:47;;;;;;;8.55;4.58;;;;;;;7.76;85.13;97355.13;1722599;83;26391;-86
2021/12/31 09:21:17;;;;;;;8.88;5.42;;;;;;;7.75;85.14;97352.63;1722543;83;28634;-86
2021/12/31 09:23:48;;;;;;;8.75;5.70;;;;;;;7.79;85.20;97360.12;1722458;82;25912;-86
2021/12/31 09:26:16;;;;;;;8.08;5.33;;;;;;;7.82;85.18;97363.77;1722614;82;25943;-86
2021/12/31 09:28:43;;;;;;;10.15;5.87;;;;;;;7.87;85.24;97362.66;1722595;83;26156;-87
2021/12/31 09:31:11;;;;;;;8.30;5.87;;;;;;;7.93;85.21;97365.09;1722300;83;25689;-87
2021/12/31 09:33:38;;;;;;;10.13;5.60;;;;;;;7.96;85.16;97368.73;1722619;82;27589;-87
2021/12/31 09:36:05;;;;;;;9.78;6.05;;;;;;;7.95;84.99;97363.05;1722514;82;25770;-87
2021/12/31 09:38:32;;;;;;;9.05;7.33;;;;;;;7.94;84.91;97361.38;1722541;83;25813;-87
2021/12/31 09:40:58;;;;;;;15.70;9.53;;;;;;;7.97;84.96;97367.69;1722500;83;25963;-88
2021/12/31 09:43:25;;;;;;;17.82;11.78;;;;;;;7.99;84.91;97361.60;1722616;83;25737;-87
2021/12/31 09:45:53;;;;;;;15.28;10.68;;;;;;;8.02;84.96;97367.94;1722323;82;27208;-88
2021/12/31 09:48:23;;;;;;;29.87;21.20;;;;;;;8.05;85.02;97363.52;1722201;82;25766;-87
2021/12/31 09:50:54;;;;;;;27.42;15.83;;;;;;;8.05;84.87;97364.86;1722332;82;25832;-88
2021/12/31 09:53:23;;;;;;;28.42;15.32;;;;;;;8.07;84.85;97368.20;1722539;83;27006;-88
2021/12/31 09:55:55;;;;;;;19.10;10.38;;;;;;;8.05;84.81;97370.24;1722848;82;25797;-88
2021/12/31 09:58:25;;;;;;;14.55;9.55;;;;;;;8.04;84.72;97370.44;1722311;82;28364;-88
2021/12/31 10:00:57;;;;;;;24.52;12.43;;;;;;;8.02;84.80;97366.59;1722367;83;26046;-88
2021/12/31 10:03:36;;;;;;;21.50;12.00;;;;;;;8.03;84.84;97360.70;1722739;83;25265;-87
2021/12/31 10:06:12;;;;;;;22.40;12.15;;;;;;;8.01;84.80;97367.62;1722316;83;44206;-86
2021/12/31 10:08:45;;;;;;;23.18;14.30;;;;;;;8.02;84.85;97365.25;1722641;83;25853;-88
2021/12/31 10:11:19;;;;;;;18.70;11.03;;;;;;;7.97;84.74;97362.84;1722299;82;27428;-88
2021/12/31 10:13:55;;;;;;;21.87;11.90;;;;;;;7.95;84.83;97359.02;1722636;83;26024;-88
2021/12/31 10:16:29;;;;;;;24.72;13.90;;;;;;;7.96;84.95;97355.30;1722592;82;25741;-87
2021/12/31 10:19:18;;;;;;;15.90;10.82;;;;;;;7.98;84.93;97361.80;1722328;82;25985;-87
2021/12/31 10:21:50;;;;;;;7.78;5.00;;;;;;;8.01;85.08;97359.55;1722629;82;25753;-88
2021/12/31 10:24:37;;;;;;;8.15;5.78;;;;;;;8.13;85.37;97353.95;1722739;82;28035;-87
2021/12/31 10:27:19;;;;;;;14.45;8.95;;;;;;;8.30;85.69;97344.55;1722522;83;25720;-87
2021/12/31 10:30:03;;;;;;;11.35;7.25;;;;;;;8.48;85.83;97348.59;1722731;82;25956;-88
2021/12/31 10:32:40;;;;;;;12.60;7.65;;;;;;;8.63;85.91;97346.59;1722605;82;26041;-90
2021/12/31 10:35:15;;;;;;;9.08;5.95;;;;;;;8.72;85.70;97340.00;1722345;82;25831;-89
2021/12/31 10:37:58;;;;;;;7.08;4.97;;;;;;;8.78;85.49;97339.21;1722481;83;27550;-90
2021/12/31 10:40:40;;;;;;;7.53;4.62;;;;;;;8.81;85.26;97334.78;1722464;83;25783;-91
2021/12/31 10:43:18;;;;;;;8.35;4.67;;;;;;;8.81;85.01;97334.78;1722526;82;25736;-87
2021/12/31 10:45:59;;;;;;;8.08;5.12;;;;;;;8.79;84.76;97319.34;1722517;82;26852;-88
2021/12/31 10:48:48;;;;;;;10.70;5.53;;;;;;;8.79;84.74;97332.80;1723187;83;25715;-87
2021/12/31 10:51:18;;;;;;;9.45;6.97;;;;;;;8.78;84.65;97335.17;1722749;83;27548;-86
2021/12/31 10:53:54;;;;;;;19.23;11.20;;;;;;;8.78;84.59;97324.92;1722995;83;25869;-87
2021/12/31 10:56:21;;;;;;;15.65;10.15;;;;;;;8.78;84.51;97325.76;1723033;82;25714;-87
2021/12/31 10:58:57;;;;;;;16.27;10.00;;;;;;;8.77;84.41;97321.41;1723069;82;26084;-87
2021/12/31 11:01:24;;;;;;;15.60;9.30;;;;;;;8.80;84.38;97318.31;1723059;83;25831;-87
2021/12/31 11:03:53;;;;;;;17.65;9.83;;;;;;;8.81;84.37;97324.02;1722994;83;28384;-87
2021/12/31 11:06:22;;;;;;;16.45;11.20;;;;;;;8.84;84.37;97316.02;1722895;82;25285;-88
2021/12/31 11:08:51;;;;;;;20.55;12.88;;;;;;;8.87;84.32;97307.04;1723027;83;25703;-85
2021/12/31 11:11:20;;;;;;;20.40;11.43;;;;;;;8.88;84.25;97302.48;1722914;83;26210;-85
2021/12/31 11:13:48;;;;;;;18.65;11.22;;;;;;;8.89;84.23;97313.05;1722903;81;25230;-86
2021/12/31 11:16:15;;;;;;;17.40;11.15;;;;;;;8.93;84.23;97300.86;1722978;83;27487;-86
2021/12/31 11:18:42;;;;;;;15.68;10.70;;;;;;;8.94;84.17;97297.63;1722800;82;25292;-86
2021/12/31 11:21:09;;;;;;;19.57;11.97;;;;;;;8.98;84.22;97305.09;1723160;83;25829;-86
2021/12/31 11:23:36;;;;;;;13.83;9.53;;;;;;;9.04;84.26;97300.77;1722995;82;26097;-87
2021/12/31 11:26:06;;;;;;;25.88;15.85;;;;;;;9.17;84.34;97297.28;1723001;83;25770;-86
2021/12/31 11:28:42;;;;;;;33.05;18.40;;;;;;;9.28;84.33;97293.97;1722966;83;28035;-86
2021/12/31 11:31:22;;;;;;;26.05;14.95;;;;;;;9.36;84.19;97287.03;1722924;83;25742;-86
2021/12/31 11:34:09;;;;;;;25.02;12.90;;;;;;;9.45;84.12;97293.03;1723006;83;25933;-86
2021/12/31 11:36:52;;;;;;;30.15;15.35;;;;;;;9.51;83.97;97284.97;1722951;82;26708;-86
2021/12/31 11:39:30;;;;;;;37.50;18.77;;;;;;;9.54;83.88;97298.00;1723023;82;25699;-86
2021/12/31 11:42:01;;;;;;;32.55;16.62;;;;;;;9.57;83.75;97294.07;1723056;83;27235;-85
2021/12/31 11:44:30;;;;;;;34.00;18.62;;;;;;;9.58;83.67;97287.13;1722899;83;25660;-84
2021/12/31 11:47:22;;;;;;;26.87;13.90;;;;;;;9.59;83.62;97269.92;1722645;81;26302;-87